createdAt,value
2022-10-03T00:01:45.997Z,7.80
2022-10-03T00:04:20.947Z,7.80
2022-10-03T00:07:07.374Z,7.80
2022-10-03T00:09:59.068Z,7.80
2022-10-03T00:13:07.891Z,7.70
2022-10-03T00:15:47.371Z,7.70
2022-10-03T00:18:43.639Z,7.70
2022-10-03T00:21:48.164Z,7.60
2022-10-03T00:24:34.987Z,7.60
2022-10-03T00:27:38.851Z,7.50
2022-10-03T00:30:18.975Z,7.50
2022-10-03T00:33:04.447Z,7.40
2022-10-03T00:35:56.491Z,7.40
2022-10-03T00:39:03.185Z,7.40
2022-10-03T00:41:56.007Z,8.20
2022-10-03T00:44:29.541Z,7.30
2022-10-03T00:47:18.791Z,7.30
2022-10-03T00:50:01.226Z,7.30
2022-10-03T00:52:41.309Z,7.20
2022-10-03T00:55:15.067Z,7.20
2022-10-03T00:57:57.830Z,7.20
2022-10-03T01:00:29.187Z,7.20
2022-10-03T01:03:27.204Z,7.20
2022-10-03T01:06:21.441Z,7.20
2022-10-03T01:09:04.236Z,7.20
2022-10-03T01:12:01.771Z,7.20
2022-10-03T01:14:53.956Z,7.20
2022-10-03T01:17:47.496Z,7.10
2022-10-03T01:20:27.626Z,7.10
2022-10-03T01:23:25.985Z,7.00
2022-10-03T01:26:05.133Z,7.10
2022-10-03T01:29:00.317Z,7.00
2022-10-03T01:31:50.458Z,7.00
2022-10-03T01:34:37.607Z,7.00
2022-10-03T01:37:22.837Z,7.00
2022-10-03T01:39:58.652Z,7.00
2022-10-03T01:42:41.267Z,7.00
2022-10-03T01:45:29.787Z,7.00
2022-10-03T01:48:30.600Z,6.90
2022-10-03T01:51:08.270Z,6.90
2022-10-03T01:53:48.136Z,6.90
2022-10-03T01:56:27.139Z,6.90
2022-10-03T01:59:17.863Z,6.90
2022-10-03T02:01:58.639Z,6.20
2022-10-03T02:04:59.689Z,6.90
2022-10-03T02:08:00.582Z,6.80
2022-10-03T02:10:53.942Z,6.90
2022-10-03T02:13:44.399Z,6.90
2022-10-03T02:16:40.570Z,6.90
2022-10-03T02:19:42.714Z,6.80
2022-10-03T02:22:35.095Z,6.80
2022-10-03T02:25:32.708Z,6.90
2022-10-03T02:28:06.075Z,6.90
2022-10-03T02:31:01.821Z,6.90
2022-10-03T02:33:51.038Z,6.90
2022-10-03T02:36:30.560Z,6.80
2022-10-03T02:38:59.713Z,6.90
2022-10-03T02:41:49.281Z,6.90
2022-10-03T02:44:34.942Z,6.90
2022-10-03T02:47:08.602Z,6.90
2022-10-03T02:50:04.108Z,6.90
2022-10-03T02:52:40.311Z,6.90
2022-10-03T02:55:36.725Z,6.90
2022-10-03T02:58:29.404Z,6.90
2022-10-03T03:01:25.024Z,6.90
2022-10-03T03:04:26.144Z,6.90
2022-10-03T03:07:21.524Z,6.90
2022-10-03T03:10:10.251Z,6.90
2022-10-03T03:12:43.423Z,6.80
2022-10-03T03:15:28.792Z,6.90
2022-10-03T03:18:22.924Z,6.90
2022-10-03T03:21:07.621Z,6.80
2022-10-03T03:24:00.240Z,6.80
2022-10-03T03:26:56.062Z,6.80
2022-10-03T03:29:47.488Z,6.80
2022-10-03T03:32:35.049Z,6.70
2022-10-03T03:35:27.488Z,6.80
2022-10-03T03:37:58.282Z,6.70
2022-10-03T03:40:32.901Z,6.70
2022-10-03T03:43:12.393Z,6.70
2022-10-03T03:46:07.025Z,6.70
2022-10-03T03:48:50.537Z,6.70
2022-10-03T03:51:43.103Z,6.70
2022-10-03T03:54:26.393Z,6.60
2022-10-03T03:57:12.681Z,6.70
2022-10-03T03:59:43.136Z,6.60
2022-10-03T04:02:32.526Z,6.60
2022-10-03T04:05:26.270Z,6.60
2022-10-03T04:08:13.109Z,6.50
2022-10-03T04:10:49.507Z,6.50
2022-10-03T04:13:29.340Z,6.50
2022-10-03T04:16:57.601Z,6.40
2022-10-03T04:19:43.300Z,6.50
2022-10-03T04:22:22.495Z,6.50
2022-10-03T04:24:49.804Z,6.50
2022-10-03T04:27:38.185Z,6.60
2022-10-03T04:30:17.940Z,6.60
2022-10-03T04:32:57.437Z,6.50
2022-10-03T04:35:42.871Z,6.50
2022-10-03T04:38:16.302Z,6.50
2022-10-03T04:41:05.239Z,6.80
2022-10-03T04:44:05.195Z,6.40
2022-10-03T04:46:47.075Z,6.50
2022-10-03T04:49:39.749Z,6.50
2022-10-03T04:52:28.747Z,6.50
2022-10-03T04:55:12.695Z,6.50
2022-10-03T04:58:04.735Z,6.50
2022-10-03T05:00:55.295Z,6.50
2022-10-03T05:03:53.406Z,6.70
2022-10-03T05:06:39.203Z,7.00
2022-10-03T05:09:33.184Z,6.40
2022-10-03T05:12:38.744Z,6.40
2022-10-03T05:15:27.101Z,6.30
2022-10-03T05:18:13.507Z,4.40
2022-10-03T05:21:01.513Z,6.30
2022-10-03T05:23:41.272Z,4.40
2022-10-03T05:26:45.904Z,6.30
2022-10-03T05:29:17.176Z,6.40
2022-10-03T05:32:09.912Z,6.40
2022-10-03T05:34:45.016Z,5.60
2022-10-03T05:37:25.791Z,6.50
2022-10-03T05:40:02.270Z,6.50
2022-10-03T05:42:53.573Z,6.40
2022-10-03T05:45:30.814Z,6.50
2022-10-03T05:48:27.994Z,6.50
2022-10-03T05:51:40.181Z,6.50
2022-10-03T05:54:23.161Z,6.50
2022-10-03T05:57:08.168Z,6.50
2022-10-03T05:59:57.828Z,6.50
2022-10-03T06:02:40.427Z,6.50
2022-10-03T06:05:41.155Z,6.50
2022-10-03T06:08:37.296Z,6.60
2022-10-03T06:11:43.779Z,6.60
2022-10-03T06:14:26.091Z,6.60
2022-10-03T06:17:27.875Z,6.70
2022-10-03T06:20:23.706Z,6.70
2022-10-03T06:23:19.562Z,6.80
2022-10-03T06:26:08.464Z,6.90
2022-10-03T06:29:17.164Z,7.00
2022-10-03T06:32:05.815Z,7.00
2022-10-03T06:35:34.496Z,7.40
2022-10-03T06:40:54.060Z,7.20
2022-10-03T06:43:44.725Z,7.20
2022-10-03T06:49:29.922Z,7.30
2022-10-03T06:52:43.060Z,7.40
2022-10-03T06:55:42.271Z,7.80
2022-10-03T06:58:46.253Z,7.40
2022-10-03T07:02:01.596Z,7.50
2022-10-03T07:05:06.144Z,7.40
2022-10-03T07:07:46.626Z,7.30
2022-10-03T07:10:44.070Z,7.30
2022-10-03T07:13:40.829Z,7.30
2022-10-03T07:16:45.581Z,7.20
2022-10-03T07:20:02.717Z,7.10
2022-10-03T07:23:07.436Z,7.60
2022-10-03T07:25:46.614Z,7.30
2022-10-03T07:28:33.182Z,7.40
2022-10-03T07:31:09.478Z,7.30
2022-10-03T07:33:51.887Z,7.40
2022-10-03T07:36:59.446Z,7.50
2022-10-03T07:42:47.103Z,7.70
2022-10-03T07:45:53.415Z,7.80
2022-10-03T07:48:50.490Z,7.80
2022-10-03T07:52:03.384Z,7.90
2022-10-03T07:55:15.200Z,7.90
2022-10-03T07:58:10.553Z,7.80
2022-10-03T08:01:19.231Z,7.90
2022-10-03T08:04:32.394Z,7.80
2022-10-03T08:07:26.964Z,7.80
2022-10-03T08:10:11.779Z,8.00
2022-10-03T08:13:17.113Z,7.80
2022-10-03T08:16:02.714Z,7.80
2022-10-03T08:22:04.780Z,8.10
2022-10-03T08:24:50.963Z,8.10
2022-10-03T08:27:39.225Z,8.20
2022-10-03T08:30:42.004Z,8.20
2022-10-03T08:33:25.202Z,8.20
2022-10-03T08:36:03.092Z,8.20
2022-10-03T08:39:01.162Z,8.20
2022-10-03T08:42:21.706Z,8.20
2022-10-03T08:45:17.849Z,8.30
2022-10-03T08:48:22.159Z,8.40
2022-10-03T08:54:18.243Z,8.50
2022-10-03T08:57:24.566Z,8.50
2022-10-03T09:00:17.625Z,8.60
2022-10-03T09:03:35.197Z,8.60
2022-10-03T09:07:15.530Z,8.60
2022-10-03T09:09:50.059Z,8.50
2022-10-03T09:12:27.591Z,8.00
2022-10-03T09:15:35.583Z,8.50
2022-10-03T09:18:12.684Z,8.50
2022-10-03T09:21:09.514Z,8.50
2022-10-03T09:24:19.622Z,8.60
2022-10-03T09:27:08.560Z,8.70
2022-10-03T09:30:04.702Z,8.60
2022-10-03T09:32:53.079Z,8.70
2022-10-03T09:36:40.119Z,9.00
2022-10-03T09:39:54.883Z,9.90
2022-10-03T09:46:11.277Z,8.90
2022-10-03T09:49:38.258Z,8.90
2022-10-03T09:52:23.154Z,8.90
2022-10-03T09:55:00.028Z,8.80
2022-10-03T09:58:13.327Z,8.90
2022-10-03T10:04:43.295Z,8.70
2022-10-03T10:07:32.574Z,8.10
2022-10-03T10:10:31.558Z,8.60
2022-10-03T10:13:05.662Z,8.70
2022-10-03T10:16:15.015Z,8.80
2022-10-03T10:19:03.860Z,9.50
2022-10-03T10:22:15.684Z,9.40
2022-10-03T10:25:14.995Z,9.10
2022-10-03T10:28:11.484Z,9.00
2022-10-03T10:30:58.013Z,8.90
2022-10-03T10:34:17.401Z,9.00
2022-10-03T10:37:28.244Z,8.60
2022-10-03T10:40:34.407Z,9.00
2022-10-03T10:43:33.866Z,9.00
2022-10-03T10:46:14.503Z,9.10
2022-10-03T10:49:03.891Z,9.90
2022-10-03T10:51:46.636Z,8.60
2022-10-03T10:54:34.163Z,8.50
2022-10-03T10:57:39.500Z,9.10
2022-10-03T11:00:35.216Z,9.30
2022-10-03T11:03:25.433Z,9.20
2022-10-03T11:06:31.600Z,8.60
2022-10-03T11:09:37.567Z,9.30
2022-10-03T11:12:42.665Z,9.20
2022-10-03T11:15:50.734Z,9.50
2022-10-03T11:18:47.737Z,9.30
2022-10-03T11:21:33.893Z,9.30
2022-10-03T11:24:16.800Z,9.30
2022-10-03T11:26:59.580Z,9.30
2022-10-03T11:29:48.543Z,9.30
2022-10-03T11:32:37.805Z,9.30
2022-10-03T11:35:21.013Z,9.30
2022-10-03T11:38:03.515Z,9.30
2022-10-03T11:40:40.120Z,9.50
2022-10-03T11:43:26.804Z,9.50
2022-10-03T11:46:23.188Z,9.40
2022-10-03T11:49:02.570Z,9.40
2022-10-03T11:51:58.872Z,10.00
2022-10-03T11:54:32.173Z,9.30
2022-10-03T11:57:28.490Z,9.50
2022-10-03T12:00:20.879Z,9.50
2022-10-03T12:03:00.698Z,9.50
2022-10-03T12:05:47.213Z,9.50
2022-10-03T12:08:47.820Z,9.50
2022-10-03T12:11:29.970Z,10.10
2022-10-03T12:14:11.617Z,9.50
2022-10-03T12:17:08.116Z,9.50
2022-10-03T12:20:01.032Z,9.50
2022-10-03T12:22:52.899Z,9.40
2022-10-03T12:25:36.894Z,9.30
2022-10-03T12:28:20.820Z,9.20
2022-10-03T12:31:01.912Z,9.30
2022-10-03T12:33:48.148Z,9.00
2022-10-03T12:36:48.301Z,8.90
2022-10-03T12:39:53.923Z,8.80
2022-10-03T12:42:55.740Z,8.70
2022-10-03T12:46:01.536Z,8.50
2022-10-03T12:49:16.167Z,8.50
2022-10-03T12:52:01.944Z,8.50
2022-10-03T12:54:38.272Z,8.50
2022-10-03T12:57:43.802Z,8.60
2022-10-03T13:00:24.182Z,9.50
2022-10-03T13:03:08.920Z,8.50
2022-10-03T13:05:56.403Z,8.40
2022-10-03T13:08:38.819Z,8.40
2022-10-03T13:11:54.249Z,8.40
2022-10-03T13:14:28.495Z,8.40
2022-10-03T13:17:14.366Z,8.40
2022-10-03T13:20:02.414Z,8.50
2022-10-03T13:22:50.060Z,8.50
2022-10-03T13:25:34.159Z,8.60
2022-10-03T13:28:31.241Z,8.60
2022-10-03T13:31:10.762Z,8.60
2022-10-03T13:33:46.009Z,8.60
2022-10-03T13:36:24.935Z,8.70
2022-10-03T13:39:05.353Z,8.30
2022-10-03T13:42:06.027Z,8.70
2022-10-03T13:44:39.133Z,8.80
2022-10-03T13:47:27.719Z,8.80
2022-10-03T13:50:02.403Z,8.90
2022-10-03T13:52:42.388Z,8.90
2022-10-03T13:55:37.755Z,9.00
2022-10-03T13:58:11.401Z,9.00
2022-10-03T14:00:54.380Z,9.00
2022-10-03T14:03:56.419Z,9.10
2022-10-03T14:06:35.343Z,9.10
2022-10-03T14:09:22.404Z,8.80
2022-10-03T14:11:56.309Z,9.10
2022-10-03T14:14:34.423Z,9.10
2022-10-03T14:17:30.977Z,9.10
2022-10-03T14:20:24.886Z,9.20
2022-10-03T14:23:13.424Z,9.30
2022-10-03T14:26:07.356Z,9.20
2022-10-03T14:28:50.491Z,9.20
2022-10-03T14:31:25.405Z,9.20
2022-10-03T14:34:11.089Z,9.30
2022-10-03T14:36:52.278Z,9.20
2022-10-03T14:39:41.163Z,9.30
2022-10-03T14:42:47.536Z,9.20
2022-10-03T14:45:18.990Z,9.20
2022-10-03T14:47:53.801Z,9.10
2022-10-03T14:50:25.805Z,9.10
2022-10-03T14:53:04.884Z,9.00
2022-10-03T14:56:03.114Z,9.00
2022-10-03T14:58:38.583Z,9.00
2022-10-03T15:01:24.412Z,8.90
2022-10-03T15:03:58.134Z,8.90
2022-10-03T15:06:44.335Z,9.00
2022-10-03T15:09:23.222Z,9.00
2022-10-03T15:12:15.215Z,9.00
2022-10-03T15:14:47.986Z,9.00
2022-10-03T15:17:22.997Z,9.10
2022-10-03T15:19:56.285Z,9.00
2022-10-03T15:22:36.582Z,9.00
2022-10-03T15:25:22.838Z,9.00
2022-10-03T15:27:54.757Z,8.90
2022-10-03T15:30:31.387Z,8.90
2022-10-03T15:33:16.878Z,8.90
2022-10-03T15:35:49.756Z,8.90
2022-10-03T15:38:38.909Z,8.90
2022-10-03T15:41:13.843Z,8.90
2022-10-03T15:43:50.977Z,9.00
2022-10-03T15:46:44.450Z,9.00
2022-10-03T15:50:01.210Z,9.00
2022-10-03T15:52:41.637Z,9.00
2022-10-03T15:55:47.069Z,9.00
2022-10-03T15:58:36.982Z,9.00
2022-10-03T16:01:19.217Z,9.00
2022-10-03T16:04:05.231Z,9.00
2022-10-03T16:07:01.939Z,9.00
2022-10-03T16:09:41.257Z,9.00
2022-10-03T16:12:46.013Z,9.00
2022-10-03T16:15:36.754Z,9.00
2022-10-03T16:18:31.481Z,9.00
2022-10-03T16:21:02.888Z,9.00
2022-10-03T16:23:38.080Z,9.00
2022-10-03T16:26:28.777Z,9.10
2022-10-03T16:29:19.608Z,9.00
2022-10-03T16:31:55.000Z,9.00
2022-10-03T16:34:26.591Z,9.00
2022-10-03T16:36:55.905Z,9.00
2022-10-03T16:39:42.681Z,9.10
2022-10-03T16:42:20.747Z,9.00
2022-10-03T16:44:48.205Z,8.90
2022-10-03T16:47:19.543Z,9.10
2022-10-03T16:50:14.260Z,9.10
2022-10-03T16:52:44.142Z,9.10
2022-10-03T16:55:17.818Z,9.10
2022-10-03T16:58:00.064Z,9.10
2022-10-03T17:00:38.531Z,9.10
2022-10-03T17:03:21.783Z,9.10
2022-10-03T17:05:52.183Z,9.10
2022-10-03T17:08:41.089Z,9.10
2022-10-03T17:11:15.635Z,9.10
2022-10-03T17:13:47.192Z,9.10
2022-10-03T17:16:37.684Z,9.10
2022-10-03T17:19:14.976Z,9.10
2022-10-03T17:21:52.619Z,9.10
2022-10-03T17:24:41.783Z,9.10
2022-10-03T17:27:40.845Z,9.10
2022-10-03T17:30:26.676Z,9.10
2022-10-03T17:33:09.817Z,9.10
2022-10-03T17:35:55.134Z,9.10
2022-10-03T17:38:48.855Z,9.00
2022-10-03T17:41:27.518Z,9.10
2022-10-03T17:44:24.009Z,9.20
2022-10-03T17:47:14.204Z,9.20
2022-10-03T17:50:05.974Z,9.20
2022-10-03T17:52:39.187Z,8.50
2022-10-03T17:55:10.753Z,9.10
2022-10-03T17:57:48.645Z,9.00
2022-10-03T18:00:16.158Z,9.10
2022-10-03T18:02:55.850Z,9.20
2022-10-03T18:05:30.040Z,9.20
2022-10-03T18:08:06.124Z,9.20
2022-10-03T18:10:38.728Z,9.20
2022-10-03T18:13:21.748Z,9.20
2022-10-03T18:16:16.972Z,9.20
2022-10-03T18:19:02.967Z,9.20
2022-10-03T18:21:57.315Z,9.00
2022-10-03T18:25:24.320Z,9.20
2022-10-03T18:27:52.948Z,9.20
2022-10-03T18:30:24.554Z,9.20
2022-10-03T18:32:53.472Z,9.20
2022-10-03T18:35:29.200Z,9.20
2022-10-03T18:38:16.146Z,9.20
2022-10-03T18:40:50.974Z,9.20
2022-10-03T18:43:48.378Z,9.20
2022-10-03T18:46:30.391Z,9.20
2022-10-03T18:49:30.041Z,9.20
2022-10-03T18:52:07.220Z,9.20
2022-10-03T18:54:57.816Z,9.20
2022-10-03T18:58:25.782Z,9.10
2022-10-03T19:01:04.419Z,9.10
2022-10-03T19:03:42.541Z,9.00
2022-10-03T19:06:17.222Z,9.00
2022-10-03T19:08:59.528Z,9.00
2022-10-03T19:11:41.847Z,8.90
2022-10-03T19:14:18.557Z,8.90
2022-10-03T19:16:58.061Z,8.90
2022-10-03T19:19:57.923Z,8.90
2022-10-03T19:22:39.504Z,8.90
2022-10-03T19:25:19.128Z,8.90
2022-10-03T19:27:52.509Z,8.80
2022-10-03T19:30:22.592Z,8.80
2022-10-03T19:32:54.512Z,8.80
2022-10-03T19:35:24.625Z,8.80
2022-10-03T19:38:02.884Z,8.90
2022-10-03T19:40:30.808Z,8.90
2022-10-03T19:43:27.627Z,8.90
2022-10-03T19:46:22.707Z,8.90
2022-10-03T19:49:22.747Z,8.80
2022-10-03T19:51:50.734Z,8.80
2022-10-03T19:54:43.642Z,8.80
2022-10-03T19:57:19.763Z,8.30
2022-10-03T20:00:01.439Z,8.80
2022-10-03T20:02:30.024Z,8.80
2022-10-03T20:04:58.483Z,8.80
2022-10-03T20:07:59.963Z,8.80
2022-10-03T20:10:33.802Z,9.20
2022-10-03T20:13:04.055Z,8.70
2022-10-03T20:15:47.954Z,8.70
2022-10-03T20:18:23.703Z,8.70
2022-10-03T20:20:56.992Z,8.70
2022-10-03T20:23:27.858Z,8.70
2022-10-03T20:26:04.048Z,8.70
2022-10-03T20:29:09.544Z,8.70
2022-10-03T20:31:38.808Z,8.70
2022-10-03T20:34:22.650Z,8.60
2022-10-03T20:36:58.079Z,8.50
2022-10-03T20:39:34.126Z,8.60
2022-10-03T20:42:30.982Z,8.60
2022-10-03T20:45:07.095Z,8.60
2022-10-03T20:47:47.568Z,8.60
2022-10-03T20:50:25.969Z,8.60
2022-10-03T20:53:15.298Z,8.50
2022-10-03T20:55:57.377Z,8.50
2022-10-03T20:58:33.529Z,8.50
2022-10-03T21:01:08.539Z,8.50
2022-10-03T21:04:03.741Z,8.50
2022-10-03T21:07:16.873Z,8.50
2022-10-03T21:09:53.309Z,8.50
2022-10-03T21:12:27.586Z,8.40
2022-10-03T21:15:30.246Z,8.40
2022-10-03T21:17:59.285Z,8.40
2022-10-03T21:20:38.898Z,8.40
2022-10-03T21:23:16.189Z,8.30
2022-10-03T21:25:44.594Z,8.40
2022-10-03T21:28:38.387Z,8.40
2022-10-03T21:31:25.345Z,8.40
2022-10-03T21:34:07.088Z,8.40
2022-10-03T21:36:44.255Z,8.40
2022-10-03T21:39:40.658Z,8.40
2022-10-03T21:42:24.673Z,8.40
2022-10-03T21:45:10.844Z,8.40
2022-10-03T21:47:50.707Z,8.30
2022-10-03T21:50:31.854Z,8.30
2022-10-03T21:53:15.202Z,8.30
2022-10-03T21:55:54.775Z,8.30
2022-10-03T21:58:37.204Z,8.30
2022-10-03T22:01:09.100Z,8.30
2022-10-03T22:03:53.403Z,8.30
2022-10-03T22:06:35.380Z,8.30
2022-10-03T22:09:06.232Z,8.30
2022-10-03T22:11:44.323Z,8.30
2022-10-03T22:14:36.200Z,8.30
2022-10-03T22:17:34.954Z,8.30
2022-10-03T22:20:23.232Z,8.30
2022-10-03T22:23:05.898Z,8.30
2022-10-03T22:25:52.495Z,8.20
2022-10-03T22:28:45.928Z,8.20
2022-10-03T22:31:36.849Z,8.20
2022-10-03T22:34:23.076Z,8.20
2022-10-03T22:36:51.374Z,8.20
2022-10-03T22:39:21.267Z,8.20
2022-10-03T22:41:56.886Z,8.20
2022-10-03T22:44:28.210Z,8.20
2022-10-03T22:47:06.478Z,8.20
2022-10-03T22:49:39.613Z,8.20
2022-10-03T22:52:12.310Z,8.10
2022-10-03T22:54:42.099Z,8.10
2022-10-03T22:57:12.240Z,8.20
2022-10-03T23:00:12.218Z,8.10
2022-10-03T23:03:06.381Z,8.10
2022-10-03T23:05:52.287Z,8.10
2022-10-03T23:08:57.692Z,8.00
2022-10-03T23:11:30.089Z,8.10
2022-10-03T23:14:03.797Z,8.00
2022-10-03T23:16:51.671Z,8.00
2022-10-03T23:19:34.147Z,8.00
2022-10-03T23:22:02.028Z,8.00
2022-10-03T23:24:37.653Z,8.00
2022-10-03T23:27:42.327Z,8.00
2022-10-03T23:30:13.210Z,8.00
2022-10-03T23:32:47.186Z,8.00
2022-10-03T23:35:36.110Z,7.90
2022-10-03T23:38:33.520Z,8.00
2022-10-03T23:41:09.016Z,8.00
2022-10-03T23:43:40.298Z,7.90
2022-10-03T23:46:17.984Z,7.90
2022-10-03T23:49:01.102Z,7.90
2022-10-03T23:51:33.824Z,7.80
2022-10-03T23:54:05.613Z,7.90
2022-10-03T23:56:44.393Z,7.80
2022-10-03T23:59:22.330Z,7.80
